KEGE/EGE METAR and TAF weather

Enter ICAO airport designator
Station Type Date Time Source
KEGE METAR 2020/09/22 01:56 UTC NOAA

KEGE 220156Z AUTO 00000KT 10SM CLR 19/M01 A3026 RMK AO2 SLP217 T01941011 PNO $


Station Type Date Time Source
KEGE Decoded METAR 2020/09/22 01:56 UTC NOAA

Eagle County Regional, CO, United States (KEGE) 39-39N 106-55W
Sep 21, 2020 - 09:56 PM EDT / 2020.09.22 0156 UTC
Wind: Calm:0
Visibility: 10 mile(s):0
Sky conditions: clear
Temperature: 66.9 F (19.4 C)
Dew Point: 30.0 F (-1.1 C)
Relative Humidity: 25%
Pressure (altimeter): 30.26 in. Hg (1024 hPa)
ob: KEGE 220156Z AUTO 00000KT 10SM CLR 19/M01 A3026 RMK AO2 SLP217 T01941011 PNO
cycle: 2

Station Type Date Time Source
KEGE TAF 2020/09/21 20:06 UTC NOAA

TAF
AMD KEGE 212003Z 2120/2218 25010G17KT P6SM FEW120
FM220200 10006KT P6SM SCT250
FM221200 VRB03KT P6SM FEW250

Example: see airport list